Pagrindinis puslapis
METAR-TAF:

METAR-TAF

Oro uostai :

Parma, Italija

platuma: 44-49-17N, ilguma: 010-17-41E, Aukštis: 50 m

Dabartinis oras

Ataskaita buvo paskelbta 25 minutes, ne 07:50 UTC
Vėjas 3 kt iš Vakarų, svyruoja nuo Pietų ir Vakarų/Šiaurės Vakarų
Temperatūra -4°C
Drėgmė 100%
Slėgis 1026 hPa
Matomumas: 0300 m
įšaldymas rūko

METAR: LIMP 190750Z 26003KT 190V290 0300 R20/0400N FZFG VV/// M04/M04 Q1026

Laikas: 09:15 (08:15 UTC)

Prognozė

Ataskaita buvo paskelbta 1 valandą ir 42 minutes, ne 06:33 UTC
Prognozė galioja nuo 19 metu 07 UTC su 20 metu 06 UTC
Vėjas 4 kt nuo kintamojo kryptimis
Matomumas: 0200 m
Apsiniaukę ne aukštis 200 ft
įšaldymas rūko
Tapsmas
nuo 19 metu 10 UTC su 19 metu 12 UTC
Matomumas: 4000 m
rūkana

TAF: LIMP 190633Z 1907/2006 VRB04KT 0200 FZFG OVC002 BECMG 1910/1912 4000 BR

Orai ataskaitas ir orų prognozės (METAR, TAF).

turimą stotys yra geltonos ir raudonos taškus žemėlapyje.

Perkelti pele per norėdami pamatyti stoties vardą.

Tada spustelėkite, norėdami matyti oro stebėjimo ir prognozės.

Norėdami pakeisti žemėlapį: spustelėkite ant žalios mygtukų su juodo kryžiaus žemyn,; žalią mygtuką su brūkšneliu, jei norite nutolinti; arba žalių rodyklių gretimoms žemėlapius.


METAR-TAF: